createdAt,value
2023-05-05T00:01:02.539Z,2.37
2023-05-05T00:03:30.826Z,3.73
2023-05-05T00:05:59.056Z,3.17
2023-05-05T00:08:28.954Z,3.00
2023-05-05T00:10:57.689Z,2.73
2023-05-05T00:13:25.954Z,3.53
2023-05-05T00:15:54.731Z,3.80
2023-05-05T00:18:23.279Z,2.83
2023-05-05T00:20:51.571Z,3.40
2023-05-05T00:23:20.687Z,3.00
2023-05-05T00:25:50.163Z,2.97
2023-05-05T00:28:18.574Z,2.37
2023-05-05T00:30:46.933Z,3.47
2023-05-05T00:33:15.277Z,2.53
2023-05-05T00:35:43.516Z,2.73
2023-05-05T00:38:11.693Z,3.07
2023-05-05T00:40:39.916Z,3.10
2023-05-05T00:43:09.561Z,3.40
2023-05-05T00:45:39.078Z,2.60
2023-05-05T00:48:07.735Z,2.50
2023-05-05T00:50:36.424Z,2.43
2023-05-05T00:53:06.148Z,3.90
2023-05-05T00:55:35.575Z,2.50
2023-05-05T00:58:04.268Z,2.50
2023-05-05T01:00:35.258Z,3.00
2023-05-05T01:03:05.481Z,3.37
2023-05-05T01:05:43.510Z,3.17
2023-05-05T01:08:28.572Z,2.67
2023-05-05T01:11:03.955Z,3.20
2023-05-05T01:13:43.703Z,3.03
2023-05-05T01:16:19.620Z,4.23
2023-05-05T01:18:54.300Z,3.10
2023-05-05T01:21:29.481Z,3.10
2023-05-05T01:24:49.416Z,2.33
2023-05-05T01:27:34.056Z,2.80
2023-05-05T01:30:18.013Z,4.40
2023-05-05T01:32:51.799Z,3.20
2023-05-05T01:35:23.795Z,2.43
2023-05-05T01:38:00.180Z,2.93
2023-05-05T01:40:34.512Z,2.87
2023-05-05T01:43:04.722Z,3.13
2023-05-05T01:45:36.600Z,3.07
2023-05-05T01:48:09.049Z,3.53
2023-05-05T01:50:38.470Z,3.60
2023-05-05T01:53:09.522Z,3.07
2023-05-05T01:55:39.905Z,3.07
2023-05-05T01:58:09.142Z,2.90
2023-05-05T02:00:37.539Z,2.67
2023-05-05T02:03:08.959Z,2.20
2023-05-05T02:05:39.498Z,2.70
2023-05-05T02:08:10.025Z,3.60
2023-05-05T02:10:40.812Z,2.63
2023-05-05T02:13:12.427Z,3.40
2023-05-05T02:15:41.441Z,3.03
2023-05-05T02:18:13.302Z,3.10
2023-05-05T02:20:42.268Z,3.10
2023-05-05T02:23:10.995Z,2.63
2023-05-05T02:25:42.517Z,3.00
2023-05-05T02:28:16.473Z,2.67
2023-05-05T02:30:45.355Z,2.87
2023-05-05T02:33:21.270Z,2.93
2023-05-05T02:35:54.397Z,3.97
2023-05-05T02:38:29.626Z,3.00
2023-05-05T02:41:04.412Z,3.07
2023-05-05T02:43:34.027Z,3.67
2023-05-05T02:46:02.652Z,2.43
2023-05-05T02:48:33.975Z,3.00
2023-05-05T02:51:03.505Z,3.60
2023-05-05T02:53:36.379Z,2.77
2023-05-05T02:56:11.588Z,3.23
2023-05-05T02:58:52.922Z,3.00
2023-05-05T03:01:30.337Z,3.00
2023-05-05T03:04:10.226Z,3.10
2023-05-05T03:06:50.012Z,2.87
2023-05-05T03:09:26.841Z,3.63
2023-05-05T03:12:02.036Z,3.57
2023-05-05T03:14:35.982Z,3.93
2023-05-05T03:17:07.154Z,3.03
2023-05-05T03:19:39.828Z,2.33
2023-05-05T03:22:08.437Z,3.33
2023-05-05T03:24:38.024Z,3.60
2023-05-05T03:27:10.177Z,2.80
2023-05-05T03:29:40.797Z,3.17
2023-05-05T03:32:13.372Z,3.57
2023-05-05T03:34:44.026Z,2.77
2023-05-05T03:37:12.296Z,3.10
2023-05-05T03:39:42.251Z,3.50
2023-05-05T03:42:11.805Z,3.50
2023-05-05T03:44:41.488Z,3.40
2023-05-05T03:47:09.739Z,2.60
2023-05-05T03:49:40.099Z,3.67
2023-05-05T03:52:11.133Z,3.83
2023-05-05T03:54:40.676Z,2.90
2023-05-05T03:57:08.924Z,3.03
2023-05-05T03:59:37.108Z,3.20
2023-05-05T04:02:05.359Z,3.17
2023-05-05T04:04:33.790Z,4.17
2023-05-05T04:07:02.025Z,3.50
2023-05-05T04:09:31.804Z,3.63
2023-05-05T04:12:00.027Z,3.33
2023-05-05T04:14:28.952Z,4.17
2023-05-05T04:16:57.559Z,3.10
2023-05-05T04:19:26.178Z,4.17
2023-05-05T04:21:54.595Z,2.97
2023-05-05T04:24:24.758Z,3.97
2023-05-05T04:26:56.087Z,3.73
2023-05-05T04:29:24.515Z,3.10
2023-05-05T04:31:53.917Z,3.93
2023-05-05T04:34:22.370Z,2.80
2023-05-05T04:36:51.967Z,2.83
2023-05-05T04:39:21.569Z,3.17
2023-05-05T04:41:50.786Z,2.73
2023-05-05T04:44:20.720Z,2.80
2023-05-05T04:46:48.963Z,2.77
2023-05-05T04:49:17.673Z,2.07
2023-05-05T04:51:46.589Z,2.63
2023-05-05T04:54:15.033Z,2.53
2023-05-05T04:56:45.207Z,2.03
2023-05-05T04:59:13.470Z,2.57
2023-05-05T05:01:43.288Z,2.40
2023-05-05T05:04:11.587Z,2.80
2023-05-05T05:06:40.080Z,2.33
2023-05-05T05:09:08.373Z,2.17
2023-05-05T05:11:36.511Z,2.03
2023-05-05T05:14:04.671Z,1.90
2023-05-05T05:16:33.044Z,3.07
2023-05-05T05:19:02.907Z,2.60
2023-05-05T05:21:32.904Z,3.27
2023-05-05T05:24:01.615Z,2.30
2023-05-05T05:26:31.050Z,1.80
2023-05-05T05:28:59.280Z,2.63
2023-05-05T05:31:27.584Z,2.30
2023-05-05T05:33:56.561Z,2.30
2023-05-05T05:36:27.325Z,2.50
2023-05-05T05:38:56.474Z,2.53
2023-05-05T05:41:24.957Z,2.53
2023-05-05T05:43:53.495Z,2.10
2023-05-05T05:46:21.826Z,2.13
2023-05-05T05:48:50.212Z,2.43
2023-05-05T05:51:19.094Z,2.60
2023-05-05T05:53:51.877Z,2.53
2023-05-05T05:56:21.511Z,2.33
2023-05-05T05:58:49.795Z,2.50
2023-05-05T06:01:18.672Z,1.57
2023-05-05T06:03:47.724Z,2.43
2023-05-05T06:06:16.394Z,3.20
2023-05-05T06:08:46.030Z,2.17
2023-05-05T06:11:15.992Z,2.73
2023-05-05T06:13:44.262Z,2.70
2023-05-05T06:16:12.677Z,2.20
2023-05-05T06:18:43.148Z,2.23
2023-05-05T06:21:12.186Z,2.23
2023-05-05T06:23:40.757Z,3.27
2023-05-05T06:26:09.157Z,3.20
2023-05-05T06:28:39.308Z,2.67
2023-05-05T06:31:07.796Z,2.37
2023-05-05T06:33:36.072Z,2.47
2023-05-05T06:36:04.644Z,2.40
2023-05-05T06:38:32.787Z,2.27
2023-05-05T06:41:00.967Z,2.90
2023-05-05T06:43:29.917Z,3.17
2023-05-05T06:46:02.499Z,2.30
2023-05-05T06:48:30.712Z,2.87
2023-05-05T06:50:58.869Z,2.50
2023-05-05T06:53:27.382Z,3.00
2023-05-05T06:55:55.555Z,2.80
2023-05-05T06:58:23.779Z,2.50
2023-05-05T07:00:54.133Z,2.60
2023-05-05T07:03:24.006Z,3.00
2023-05-05T07:05:53.831Z,3.60
2023-05-05T07:08:24.358Z,3.40
2023-05-05T07:10:52.970Z,4.50
2023-05-05T07:13:22.226Z,4.63
2023-05-05T07:15:50.464Z,2.57
2023-05-05T07:18:20.361Z,3.90
2023-05-05T07:20:49.983Z,2.67
2023-05-05T07:23:18.316Z,3.30
2023-05-05T07:25:46.709Z,3.60
2023-05-05T07:28:15.467Z,3.60
2023-05-05T07:30:43.697Z,3.57
2023-05-05T07:33:12.207Z,3.37
2023-05-05T07:35:40.439Z,3.30
2023-05-05T07:38:10.905Z,4.00
2023-05-05T07:40:39.452Z,2.80
2023-05-05T07:43:07.622Z,4.10
2023-05-05T07:45:35.847Z,3.23
2023-05-05T07:48:05.324Z,4.30
2023-05-05T07:50:33.599Z,3.30
2023-05-05T07:53:13.060Z,3.40
2023-05-05T07:55:44.230Z,3.47
2023-05-05T07:58:12.787Z,4.10
2023-05-05T08:00:41.026Z,4.27
2023-05-05T08:03:11.537Z,3.70
2023-05-05T08:05:40.688Z,3.90
2023-05-05T08:08:09.186Z,3.43
2023-05-05T08:10:37.420Z,3.37
2023-05-05T08:13:07.377Z,3.53
2023-05-05T08:15:35.675Z,4.60
2023-05-05T08:18:04.093Z,3.90
2023-05-05T08:20:32.590Z,2.97
2023-05-05T08:23:00.818Z,3.33
2023-05-05T08:25:29.118Z,3.70
2023-05-05T08:27:57.550Z,3.30
2023-05-05T08:30:27.167Z,3.00
2023-05-05T08:32:55.644Z,3.30
2023-05-05T08:35:23.877Z,3.50
2023-05-05T08:37:52.472Z,3.80
2023-05-05T08:40:22.096Z,2.43
2023-05-05T08:42:50.564Z,4.17
2023-05-05T08:45:18.740Z,3.90
2023-05-05T08:47:48.488Z,2.80
2023-05-05T08:50:19.078Z,4.87
2023-05-05T08:52:52.985Z,4.63
2023-05-05T08:55:25.405Z,3.80
2023-05-05T08:57:56.993Z,3.30
2023-05-05T09:00:27.149Z,4.07
2023-05-05T09:02:57.982Z,4.27
2023-05-05T09:05:27.093Z,3.20
2023-05-05T09:07:55.358Z,3.13
2023-05-05T09:10:23.576Z,3.00
2023-05-05T09:12:51.995Z,2.77
2023-05-05T09:15:20.432Z,3.63
2023-05-05T09:17:48.727Z,3.10
2023-05-05T09:20:19.512Z,3.40
2023-05-05T09:22:48.715Z,3.40
2023-05-05T09:25:18.661Z,2.73
2023-05-05T09:27:49.500Z,3.10
2023-05-05T09:30:19.157Z,3.17
2023-05-05T09:32:49.094Z,3.53
2023-05-05T09:35:19.524Z,2.90
2023-05-05T09:37:48.131Z,2.97
2023-05-05T09:40:19.648Z,2.70
2023-05-05T09:42:48.461Z,3.17
2023-05-05T09:45:27.632Z,3.27
2023-05-05T09:47:59.903Z,3.00
2023-05-05T09:50:32.575Z,4.00
2023-05-05T09:53:02.686Z,3.73
2023-05-05T09:55:32.002Z,3.83
2023-05-05T09:58:18.755Z,3.40
2023-05-05T10:00:47.535Z,3.80
2023-05-05T10:03:16.085Z,3.10
2023-05-05T10:05:53.172Z,3.10
2023-05-05T10:08:23.045Z,2.47
2023-05-05T10:10:53.244Z,2.30
2023-05-05T10:13:22.771Z,2.20
2023-05-05T10:15:52.556Z,3.23
2023-05-05T10:18:23.259Z,2.37
2023-05-05T10:20:59.071Z,2.77
2023-05-05T10:23:33.374Z,2.33
2023-05-05T10:26:04.054Z,2.80
2023-05-05T10:28:38.237Z,2.13
2023-05-05T10:31:24.513Z,2.90
2023-05-05T10:33:55.465Z,2.93
2023-05-05T10:36:25.740Z,2.47
2023-05-05T10:38:57.506Z,2.07
2023-05-05T10:41:26.163Z,2.70
2023-05-05T10:43:57.081Z,2.10
2023-05-05T10:46:26.598Z,2.50
2023-05-05T10:49:00.832Z,2.33
2023-05-05T10:51:40.494Z,2.47
2023-05-05T10:54:15.445Z,3.00
2023-05-05T10:56:44.281Z,2.83
2023-05-05T10:59:40.810Z,2.53
2023-05-05T11:02:23.498Z,1.97
2023-05-05T11:05:08.209Z,2.83
2023-05-05T11:07:38.445Z,2.10
2023-05-05T11:10:08.048Z,2.17
2023-05-05T11:13:18.651Z,2.37
2023-05-05T11:15:47.058Z,2.00
2023-05-05T11:18:44.477Z,1.90
2023-05-05T11:21:17.822Z,2.03
2023-05-05T11:23:49.608Z,2.40
2023-05-05T11:26:19.690Z,2.30
2023-05-05T11:28:59.856Z,2.30
2023-05-05T11:31:28.780Z,1.63
2023-05-05T11:34:27.693Z,2.37
2023-05-05T11:37:02.587Z,1.93
2023-05-05T11:39:41.544Z,2.23
2023-05-05T11:42:24.721Z,2.50
2023-05-05T11:44:53.521Z,2.10
2023-05-05T11:47:29.884Z,1.90
2023-05-05T11:49:58.708Z,1.93
2023-05-05T11:52:30.879Z,2.10
2023-05-05T11:55:03.810Z,1.50
2023-05-05T11:57:32.102Z,1.70
2023-05-05T12:00:02.266Z,2.27
2023-05-05T12:02:32.861Z,2.00
2023-05-05T12:05:01.737Z,1.60
2023-05-05T12:07:31.664Z,1.97
2023-05-05T12:10:00.941Z,2.50
2023-05-05T12:12:38.498Z,2.10
2023-05-05T12:15:09.231Z,2.50
2023-05-05T12:17:40.769Z,1.93
2023-05-05T12:20:11.280Z,2.50
2023-05-05T12:22:40.479Z,2.70
2023-05-05T12:25:09.868Z,2.50
2023-05-05T12:27:39.584Z,1.63
2023-05-05T12:30:16.338Z,2.10
2023-05-05T12:32:45.014Z,2.83
2023-05-05T12:35:14.498Z,1.63
2023-05-05T12:37:43.400Z,2.27
2023-05-05T12:40:41.940Z,3.30
2023-05-05T12:43:11.896Z,2.53
2023-05-05T12:45:40.114Z,2.33
2023-05-05T12:48:22.411Z,1.87
2023-05-05T12:50:50.918Z,1.90
2023-05-05T12:53:22.766Z,3.10
2023-05-05T12:55:51.378Z,1.93
2023-05-05T12:58:21.558Z,2.50
2023-05-05T13:01:10.933Z,1.90
2023-05-05T13:03:39.101Z,2.33
2023-05-05T13:06:20.481Z,2.10
2023-05-05T13:08:48.724Z,2.00
2023-05-05T13:11:16.938Z,2.57
2023-05-05T13:13:46.602Z,2.13
2023-05-05T13:16:14.805Z,2.30
2023-05-05T13:18:46.402Z,2.30
2023-05-05T13:21:14.796Z,2.23
2023-05-05T13:23:43.970Z,2.27
2023-05-05T13:26:12.317Z,2.30
2023-05-05T13:28:40.681Z,2.10
2023-05-05T13:31:10.412Z,2.37
2023-05-05T13:33:38.744Z,2.37
2023-05-05T13:36:07.211Z,2.20
2023-05-05T13:38:36.517Z,2.53
2023-05-05T13:41:05.094Z,2.13
2023-05-05T13:43:33.380Z,2.10
2023-05-05T13:46:16.084Z,2.90
2023-05-05T13:48:49.077Z,2.40
2023-05-05T13:51:17.277Z,1.77
2023-05-05T13:53:45.956Z,1.90
2023-05-05T13:56:14.828Z,1.80
2023-05-05T13:58:43.393Z,3.03
2023-05-05T14:01:11.958Z,2.37
2023-05-05T14:03:40.506Z,2.00
2023-05-05T14:06:10.295Z,1.87
2023-05-05T14:08:38.622Z,2.37
2023-05-05T14:11:06.889Z,2.23
2023-05-05T14:13:35.211Z,2.00
2023-05-05T14:16:03.403Z,2.43
2023-05-05T14:18:31.600Z,2.27
2023-05-05T14:20:59.804Z,2.00
2023-05-05T14:23:29.373Z,2.10
2023-05-05T14:25:57.657Z,2.50
2023-05-05T14:28:25.881Z,1.87
2023-05-05T14:30:54.245Z,2.10
2023-05-05T14:33:23.161Z,2.37
2023-05-05T14:35:51.342Z,2.00
2023-05-05T14:38:19.629Z,1.83
2023-05-05T14:40:49.245Z,1.90
2023-05-05T14:43:17.488Z,2.03
2023-05-05T14:45:45.899Z,2.90
2023-05-05T14:48:14.112Z,2.40
2023-05-05T14:50:42.566Z,2.10
2023-05-05T14:53:10.870Z,1.77
2023-05-05T14:55:39.515Z,2.10
2023-05-05T14:58:09.051Z,2.40
2023-05-05T15:00:37.223Z,2.40
2023-05-05T15:03:05.578Z,2.30
2023-05-05T15:05:33.847Z,1.93
2023-05-05T15:08:02.101Z,2.67
2023-05-05T15:10:30.411Z,2.00
2023-05-05T15:12:58.689Z,2.97
2023-05-05T15:15:28.299Z,2.50
2023-05-05T15:17:56.537Z,3.23
2023-05-05T15:20:24.801Z,2.30
2023-05-05T15:22:53.005Z,3.23
2023-05-05T15:25:21.470Z,2.60
2023-05-05T15:27:49.724Z,3.37
2023-05-05T15:30:18.155Z,2.27
2023-05-05T15:32:47.895Z,2.40
2023-05-05T15:35:16.159Z,2.83
2023-05-05T15:37:44.330Z,2.03
2023-05-05T15:40:13.061Z,1.53
2023-05-05T15:42:41.599Z,2.20
2023-05-05T15:45:12.367Z,2.00
2023-05-05T15:47:40.816Z,2.40
2023-05-05T15:50:10.987Z,1.80
2023-05-05T15:52:39.303Z,1.97
2023-05-05T15:55:08.987Z,2.33
2023-05-05T15:57:39.687Z,2.57
2023-05-05T16:00:09.572Z,2.13
2023-05-05T16:02:38.761Z,2.87
2023-05-05T16:05:08.232Z,2.63
2023-05-05T16:07:38.151Z,2.77
2023-05-05T16:10:08.183Z,3.07
2023-05-05T16:12:36.430Z,2.77
2023-05-05T16:15:05.240Z,2.80
2023-05-05T16:17:33.499Z,2.57
2023-05-05T16:20:01.767Z,2.23
2023-05-05T16:22:30.545Z,2.57
2023-05-05T16:25:00.062Z,2.40
2023-05-05T16:27:28.821Z,2.47
2023-05-05T16:29:59.546Z,2.43
2023-05-05T16:32:28.015Z,2.67
2023-05-05T16:34:56.257Z,3.17
2023-05-05T16:37:24.597Z,2.70
2023-05-05T16:39:52.728Z,2.30
2023-05-05T16:42:22.630Z,3.83
2023-05-05T16:44:50.746Z,2.90
2023-05-05T16:47:18.869Z,3.20
2023-05-05T16:49:47.167Z,2.77
2023-05-05T16:52:15.311Z,3.00
2023-05-05T16:54:43.555Z,2.73
2023-05-05T16:57:12.820Z,2.60
2023-05-05T16:59:42.644Z,3.40
2023-05-05T17:02:10.872Z,3.60
2023-05-05T17:04:39.307Z,3.83
2023-05-05T17:07:07.547Z,4.30
2023-05-05T17:09:36.500Z,4.20
2023-05-05T17:12:05.087Z,3.80
2023-05-05T17:14:33.582Z,3.40
2023-05-05T17:17:03.249Z,3.80
2023-05-05T17:19:31.445Z,3.40
2023-05-05T17:21:59.614Z,4.17
2023-05-05T17:24:27.823Z,3.50
2023-05-05T17:26:56.396Z,4.60
2023-05-05T17:29:24.791Z,3.50
2023-05-05T17:31:54.059Z,3.97
2023-05-05T17:34:23.673Z,3.40
2023-05-05T17:36:51.854Z,3.80
2023-05-05T17:39:20.025Z,3.50
2023-05-05T17:41:48.191Z,3.43
2023-05-05T17:44:16.384Z,4.07
2023-05-05T17:46:44.670Z,4.50
2023-05-05T17:49:12.809Z,3.40
2023-05-05T17:51:42.380Z,3.83
2023-05-05T17:54:10.546Z,3.67
2023-05-05T17:56:38.734Z,4.50
2023-05-05T17:59:07.192Z,3.80
2023-05-05T18:01:35.711Z,3.90
2023-05-05T18:04:03.891Z,3.90
2023-05-05T18:06:32.148Z,3.43
2023-05-05T18:09:01.658Z,3.50
2023-05-05T18:11:31.001Z,4.33
2023-05-05T18:13:59.201Z,4.10
2023-05-05T18:16:27.425Z,3.90
2023-05-05T18:18:55.614Z,3.27
2023-05-05T18:21:23.856Z,4.43
2023-05-05T18:23:57.242Z,3.70
2023-05-05T18:26:31.334Z,3.40
2023-05-05T18:28:59.532Z,3.80
2023-05-05T18:31:28.482Z,3.10
2023-05-05T18:33:56.732Z,4.37
2023-05-05T18:36:24.922Z,3.80
2023-05-05T18:38:53.065Z,3.60
2023-05-05T18:41:21.389Z,3.50
2023-05-05T18:43:50.927Z,2.80
2023-05-05T18:46:19.297Z,3.77
2023-05-05T18:48:47.517Z,3.77
2023-05-05T18:51:15.908Z,3.97
2023-05-05T18:53:44.158Z,3.10
2023-05-05T18:56:12.331Z,3.90
2023-05-05T18:58:40.505Z,3.53
2023-05-05T19:01:10.181Z,3.63
2023-05-05T19:03:38.422Z,3.40
2023-05-05T19:06:07.005Z,3.13
2023-05-05T19:08:35.184Z,4.03
2023-05-05T19:11:03.572Z,3.53
2023-05-05T19:13:31.706Z,3.03
2023-05-05T19:15:59.977Z,3.00
2023-05-05T19:18:29.521Z,3.53
2023-05-05T19:20:57.680Z,3.20
2023-05-05T19:23:25.991Z,2.93
2023-05-05T19:25:54.536Z,3.30
2023-05-05T19:28:22.810Z,2.90
2023-05-05T19:30:51.066Z,3.50
2023-05-05T19:33:19.280Z,3.30
2023-05-05T19:35:48.826Z,3.93
2023-05-05T19:38:17.319Z,3.13
2023-05-05T19:40:45.495Z,4.00
2023-05-05T19:43:13.633Z,4.60
2023-05-05T19:45:41.977Z,3.37
2023-05-05T19:48:10.221Z,3.77
2023-05-05T19:50:38.437Z,3.27
2023-05-05T19:53:07.925Z,4.63
2023-05-05T19:55:36.197Z,3.17
2023-05-05T19:58:04.354Z,3.13
2023-05-05T20:00:33.205Z,3.33
2023-05-05T20:03:02.031Z,3.30
2023-05-05T20:05:30.844Z,3.40
2023-05-05T20:07:59.016Z,3.60
2023-05-05T20:10:28.566Z,4.10
2023-05-05T20:12:56.847Z,3.60
2023-05-05T20:15:25.330Z,3.70
2023-05-05T20:17:53.705Z,3.13
2023-05-05T20:20:23.266Z,3.53
2023-05-05T20:22:51.431Z,4.00
2023-05-05T20:25:19.759Z,3.40
2023-05-05T20:27:49.501Z,2.80
2023-05-05T20:30:17.762Z,4.10
2023-05-05T20:32:46.065Z,4.67
2023-05-05T20:35:14.386Z,3.33
2023-05-05T20:37:44.962Z,3.53
2023-05-05T20:40:14.185Z,3.73
2023-05-05T20:42:42.382Z,3.33
2023-05-05T20:45:12.594Z,3.67
2023-05-05T20:47:40.888Z,3.90
2023-05-05T20:50:10.133Z,4.40
2023-05-05T20:52:38.854Z,3.90
2023-05-05T20:55:07.775Z,3.40
2023-05-05T20:57:36.195Z,3.60
2023-05-05T21:00:05.418Z,3.57
2023-05-05T21:02:35.116Z,4.33
2023-05-05T21:05:03.503Z,3.23
2023-05-05T21:07:34.132Z,3.03
2023-05-05T21:10:02.444Z,3.50
2023-05-05T21:12:31.557Z,3.30
2023-05-05T21:14:59.811Z,3.80
2023-05-05T21:17:28.891Z,4.00
2023-05-05T21:19:58.375Z,4.20
2023-05-05T21:22:26.615Z,3.30
2023-05-05T21:24:55.364Z,3.30
2023-05-05T21:27:24.855Z,3.07
2023-05-05T21:29:54.075Z,3.60
2023-05-05T21:32:22.494Z,3.60
2023-05-05T21:34:50.751Z,3.83
2023-05-05T21:37:21.641Z,2.90
2023-05-05T21:39:50.014Z,2.70
2023-05-05T21:42:18.378Z,2.20
2023-05-05T21:44:46.638Z,3.50
2023-05-05T21:47:14.845Z,2.70
2023-05-05T21:49:43.070Z,3.80
2023-05-05T21:52:11.267Z,3.50
2023-05-05T21:54:40.875Z,3.33
2023-05-05T21:57:09.083Z,3.30
2023-05-05T21:59:37.415Z,3.00
2023-05-05T22:02:05.635Z,3.40
2023-05-05T22:04:33.914Z,3.67
2023-05-05T22:07:02.095Z,3.50
2023-05-05T22:09:30.627Z,3.90
2023-05-05T22:12:00.194Z,3.77
2023-05-05T22:14:28.379Z,3.30
2023-05-05T22:16:56.679Z,3.00
2023-05-05T22:19:25.532Z,3.57
2023-05-05T22:21:54.221Z,3.07
2023-05-05T22:24:22.414Z,3.57
2023-05-05T22:26:50.554Z,3.60
2023-05-05T22:29:20.065Z,3.47
2023-05-05T22:31:48.349Z,3.30
2023-05-05T22:34:18.658Z,2.80
2023-05-05T22:36:46.903Z,3.53
2023-05-05T22:39:15.364Z,3.00
2023-05-05T22:41:43.635Z,3.10
2023-05-05T22:44:11.915Z,3.50
2023-05-05T22:46:42.098Z,3.23
2023-05-05T22:49:10.301Z,3.10
2023-05-05T22:51:39.190Z,2.93
2023-05-05T22:54:07.458Z,3.00
2023-05-05T22:56:35.865Z,3.87
2023-05-05T22:59:04.117Z,4.20
2023-05-05T23:01:33.592Z,3.40
2023-05-05T23:04:03.266Z,4.23
2023-05-05T23:06:32.206Z,3.10
2023-05-05T23:09:00.338Z,3.70
2023-05-05T23:11:28.593Z,3.27
2023-05-05T23:13:56.746Z,2.33
2023-05-05T23:16:24.960Z,2.90
2023-05-05T23:18:53.165Z,3.30
2023-05-05T23:21:22.748Z,2.90
2023-05-05T23:23:50.918Z,3.40
2023-05-05T23:26:19.101Z,3.77
2023-05-05T23:28:47.294Z,3.93
2023-05-05T23:31:15.544Z,3.20
2023-05-05T23:33:43.722Z,2.87
2023-05-05T23:36:11.906Z,3.10
2023-05-05T23:38:41.385Z,3.67
2023-05-05T23:41:09.920Z,3.50
2023-05-05T23:43:38.126Z,3.23
2023-05-05T23:46:06.528Z,3.50
2023-05-05T23:48:34.679Z,4.33
2023-05-05T23:51:02.866Z,3.23
2023-05-05T23:53:31.050Z,3.33
2023-05-05T23:56:00.530Z,3.63
2023-05-05T23:58:28.665Z,3.20
